sensor_id;sensor_type;location;lat;lon;timestamp;P1;durP1;ratioP1;P2;durP2;ratioP2
59406;SDS011;45208;32.616;-115.472;2022-08-01T00:02:17;50.10;;;5.68;;
59406;SDS011;45208;32.616;-115.472;2022-08-01T00:04:44;51.05;;;5.55;;
59406;SDS011;45208;32.616;-115.472;2022-08-01T00:07:11;54.80;;;6.22;;
59406;SDS011;45208;32.616;-115.472;2022-08-01T00:09:38;41.60;;;6.28;;
59406;SDS011;45208;32.616;-115.472;2022-08-01T00:12:04;39.00;;;5.68;;
59406;SDS011;45208;32.616;-115.472;2022-08-01T00:14:31;32.28;;;4.72;;
59406;SDS011;45208;32.616;-115.472;2022-08-01T00:16:58;46.33;;;5.15;;
59406;SDS011;45208;32.616;-115.472;2022-08-01T00:19:25;23.13;;;3.83;;
59406;SDS011;45208;32.616;-115.472;2022-08-01T00:21:51;28.58;;;3.85;;
59406;SDS011;45208;32.616;-115.472;2022-08-01T00:24:18;19.77;;;3.72;;
59406;SDS011;45208;32.616;-115.472;2022-08-01T00:26:45;24.25;;;3.25;;
59406;SDS011;45208;32.616;-115.472;2022-08-01T00:29:11;19.00;;;2.92;;
59406;SDS011;45208;32.616;-115.472;2022-08-01T00:31:40;18.60;;;3.13;;
59406;SDS011;45208;32.616;-115.472;2022-08-01T00:34:06;16.67;;;2.90;;
59406;SDS011;45208;32.616;-115.472;2022-08-01T00:36:34;13.07;;;2.58;;
59406;SDS011;45208;32.616;-115.472;2022-08-01T00:39:00;11.45;;;2.63;;
59406;SDS011;45208;32.616;-115.472;2022-08-01T00:41:27;12.15;;;2.47;;
59406;SDS011;45208;32.616;-115.472;2022-08-01T00:43:54;9.57;;;2.03;;
59406;SDS011;45208;32.616;-115.472;2022-08-01T00:46:20;13.82;;;2.30;;
59406;SDS011;45208;32.616;-115.472;2022-08-01T00:48:47;18.58;;;2.38;;
59406;SDS011;45208;32.616;-115.472;2022-08-01T00:51:14;13.50;;;2.00;;
59406;SDS011;45208;32.616;-115.472;2022-08-01T00:53:41;8.95;;;1.73;;
59406;SDS011;45208;32.616;-115.472;2022-08-01T00:56:08;9.88;;;2.20;;
59406;SDS011;45208;32.616;-115.472;2022-08-01T00:58:36;8.13;;;1.98;;
59406;SDS011;45208;32.616;-115.472;2022-08-01T01:01:03;8.63;;;2.10;;
59406;SDS011;45208;32.616;-115.472;2022-08-01T01:03:30;7.57;;;1.45;;
59406;SDS011;45208;32.616;-115.472;2022-08-01T01:08:37;13.05;;;2.35;;
59406;SDS011;45208;32.616;-115.472;2022-08-01T01:11:22;10.90;;;2.10;;
59406;SDS011;45208;32.616;-115.472;2022-08-01T01:14:01;8.35;;;1.90;;
59406;SDS011;45208;32.616;-115.472;2022-08-01T01:16:34;11.45;;;1.85;;
59406;SDS011;45208;32.616;-115.472;2022-08-01T01:19:08;10.45;;;2.00;;
59406;SDS011;45208;32.616;-115.472;2022-08-01T01:22:05;33.03;;;2.75;;
59406;SDS011;45208;32.616;-115.472;2022-08-01T01:27:36;18.13;;;2.67;;
59406;SDS011;45208;32.616;-115.472;2022-08-01T01:30:28;16.63;;;2.00;;
59406;SDS011;45208;32.616;-115.472;2022-08-01T01:32:59;11.80;;;1.88;;
59406;SDS011;45208;32.616;-115.472;2022-08-01T01:35:31;13.52;;;1.98;;
59406;SDS011;45208;32.616;-115.472;2022-08-01T01:38:01;13.05;;;1.90;;
59406;SDS011;45208;32.616;-115.472;2022-08-01T01:40:33;16.20;;;2.33;;
59406;SDS011;45208;32.616;-115.472;2022-08-01T01:43:01;15.15;;;2.13;;
59406;SDS011;45208;32.616;-115.472;2022-08-01T01:45:28;13.18;;;1.90;;
59406;SDS011;45208;32.616;-115.472;2022-08-01T01:47:57;11.77;;;1.88;;
59406;SDS011;45208;32.616;-115.472;2022-08-01T01:50:25;13.38;;;2.05;;
59406;SDS011;45208;32.616;-115.472;2022-08-01T01:52:53;10.02;;;2.05;;
59406;SDS011;45208;32.616;-115.472;2022-08-01T01:55:21;8.60;;;2.00;;
59406;SDS011;45208;32.616;-115.472;2022-08-01T01:57:51;12.25;;;1.85;;
59406;SDS011;45208;32.616;-115.472;2022-08-01T02:00:19;13.85;;;1.98;;
59406;SDS011;45208;32.616;-115.472;2022-08-01T02:02:47;7.28;;;1.58;;
59406;SDS011;45208;32.616;-115.472;2022-08-01T02:05:15;11.02;;;1.73;;
59406;SDS011;45208;32.616;-115.472;2022-08-01T02:07:42;11.30;;;1.80;;
59406;SDS011;45208;32.616;-115.472;2022-08-01T02:10:10;9.25;;;1.90;;
59406;SDS011;45208;32.616;-115.472;2022-08-01T02:12:40;9.98;;;1.85;;
59406;SDS011;45208;32.616;-115.472;2022-08-01T02:15:11;9.13;;;1.85;;
59406;SDS011;45208;32.616;-115.472;2022-08-01T02:17:41;13.35;;;1.90;;
59406;SDS011;45208;32.616;-115.472;2022-08-01T02:20:13;10.90;;;2.00;;
59406;SDS011;45208;32.616;-115.472;2022-08-01T02:22:40;11.60;;;2.40;;
59406;SDS011;45208;32.616;-115.472;2022-08-01T02:25:30;15.43;;;2.22;;
59406;SDS011;45208;32.616;-115.472;2022-08-01T02:30:34;12.48;;;2.00;;
59406;SDS011;45208;32.616;-115.472;2022-08-01T02:33:04;10.32;;;2.15;;
59406;SDS011;45208;32.616;-115.472;2022-08-01T02:35:33;8.80;;;2.00;;
59406;SDS011;45208;32.616;-115.472;2022-08-01T02:38:04;8.52;;;2.30;;
59406;SDS011;45208;32.616;-115.472;2022-08-01T02:40:35;9.25;;;1.90;;
59406;SDS011;45208;32.616;-115.472;2022-08-01T02:43:06;12.38;;;1.90;;
59406;SDS011;45208;32.616;-115.472;2022-08-01T02:45:35;12.90;;;2.20;;
59406;SDS011;45208;32.616;-115.472;2022-08-01T02:48:11;10.02;;;2.05;;
59406;SDS011;45208;32.616;-115.472;2022-08-01T02:50:42;10.10;;;2.22;;
59406;SDS011;45208;32.616;-115.472;2022-08-01T02:53:12;17.35;;;2.55;;
59406;SDS011;45208;32.616;-115.472;2022-08-01T02:55:43;27.45;;;3.55;;
59406;SDS011;45208;32.616;-115.472;2022-08-01T02:58:15;23.15;;;2.95;;
59406;SDS011;45208;32.616;-115.472;2022-08-01T03:00:45;22.10;;;3.35;;
59406;SDS011;45208;32.616;-115.472;2022-08-01T03:03:13;21.45;;;3.47;;
59406;SDS011;45208;32.616;-115.472;2022-08-01T03:05:41;25.40;;;3.25;;
59406;SDS011;45208;32.616;-115.472;2022-08-01T03:08:12;23.02;;;3.42;;
59406;SDS011;45208;32.616;-115.472;2022-08-01T03:10:41;15.65;;;2.90;;
59406;SDS011;45208;32.616;-115.472;2022-08-01T03:13:10;27.02;;;4.75;;
59406;SDS011;45208;32.616;-115.472;2022-08-01T03:15:39;20.38;;;3.05;;
59406;SDS011;45208;32.616;-115.472;2022-08-01T03:18:10;29.48;;;3.60;;
59406;SDS011;45208;32.616;-115.472;2022-08-01T03:20:39;14.68;;;2.65;;
59406;SDS011;45208;32.616;-115.472;2022-08-01T03:23:09;17.73;;;2.70;;
59406;SDS011;45208;32.616;-115.472;2022-08-01T03:25:41;11.45;;;2.47;;
59406;SDS011;45208;32.616;-115.472;2022-08-01T03:28:12;10.10;;;2.55;;
59406;SDS011;45208;32.616;-115.472;2022-08-01T03:30:41;14.57;;;2.55;;
59406;SDS011;45208;32.616;-115.472;2022-08-01T03:33:09;12.88;;;2.30;;
59406;SDS011;45208;32.616;-115.472;2022-08-01T03:35:38;16.60;;;2.40;;
59406;SDS011;45208;32.616;-115.472;2022-08-01T03:38:11;17.63;;;2.83;;
59406;SDS011;45208;32.616;-115.472;2022-08-01T03:43:57;16.73;;;5.65;;
59406;SDS011;45208;32.616;-115.472;2022-08-01T03:46:31;19.05;;;6.72;;
59406;SDS011;45208;32.616;-115.472;2022-08-01T03:49:06;9.98;;;3.13;;
59406;SDS011;45208;32.616;-115.472;2022-08-01T03:51:41;18.15;;;2.40;;
59406;SDS011;45208;32.616;-115.472;2022-08-01T03:54:10;16.45;;;7.13;;
59406;SDS011;45208;32.616;-115.472;2022-08-01T03:56:38;11.25;;;2.42;;
59406;SDS011;45208;32.616;-115.472;2022-08-01T03:59:07;12.73;;;2.22;;
59406;SDS011;45208;32.616;-115.472;2022-08-01T04:01:36;15.48;;;2.60;;
59406;SDS011;45208;32.616;-115.472;2022-08-01T04:04:03;18.25;;;2.80;;
59406;SDS011;45208;32.616;-115.472;2022-08-01T04:06:31;11.10;;;2.55;;
59406;SDS011;45208;32.616;-115.472;2022-08-01T04:08:58;11.73;;;2.63;;
59406;SDS011;45208;32.616;-115.472;2022-08-01T04:11:26;13.10;;;2.72;;
59406;SDS011;45208;32.616;-115.472;2022-08-01T04:13:54;7.05;;;2.28;;
59406;SDS011;45208;32.616;-115.472;2022-08-01T04:16:21;11.32;;;2.50;;
59406;SDS011;45208;32.616;-115.472;2022-08-01T04:18:48;8.65;;;2.30;;
59406;SDS011;45208;32.616;-115.472;2022-08-01T04:21:16;12.50;;;2.15;;
59406;SDS011;45208;32.616;-115.472;2022-08-01T04:23:47;13.98;;;2.53;;
59406;SDS011;45208;32.616;-115.472;2022-08-01T04:26:17;13.10;;;2.42;;
59406;SDS011;45208;32.616;-115.472;2022-08-01T04:28:46;15.48;;;2.20;;
59406;SDS011;45208;32.616;-115.472;2022-08-01T04:31:15;7.53;;;2.08;;
59406;SDS011;45208;32.616;-115.472;2022-08-01T04:33:45;11.63;;;2.30;;
59406;SDS011;45208;32.616;-115.472;2022-08-01T04:36:15;9.48;;;2.03;;
59406;SDS011;45208;32.616;-115.472;2022-08-01T04:38:46;11.40;;;2.38;;
59406;SDS011;45208;32.616;-115.472;2022-08-01T04:41:16;12.30;;;2.47;;
59406;SDS011;45208;32.616;-115.472;2022-08-01T04:43:44;11.32;;;3.00;;
59406;SDS011;45208;32.616;-115.472;2022-08-01T04:46:12;11.13;;;3.03;;
59406;SDS011;45208;32.616;-115.472;2022-08-01T04:48:40;11.40;;;2.60;;
59406;SDS011;45208;32.616;-115.472;2022-08-01T04:51:16;9.50;;;2.40;;
59406;SDS011;45208;32.616;-115.472;2022-08-01T04:53:48;6.07;;;2.13;;
59406;SDS011;45208;32.616;-115.472;2022-08-01T04:56:17;11.38;;;2.50;;
59406;SDS011;45208;32.616;-115.472;2022-08-01T04:58:44;8.48;;;2.30;;
59406;SDS011;45208;32.616;-115.472;2022-08-01T05:01:11;10.27;;;2.58;;
59406;SDS011;45208;32.616;-115.472;2022-08-01T05:03:39;10.00;;;2.75;;
59406;SDS011;45208;32.616;-115.472;2022-08-01T05:06:06;11.23;;;2.92;;
59406;SDS011;45208;32.616;-115.472;2022-08-01T05:08:33;13.98;;;3.03;;
59406;SDS011;45208;32.616;-115.472;2022-08-01T05:11:01;14.98;;;2.75;;
59406;SDS011;45208;32.616;-115.472;2022-08-01T05:13:28;9.63;;;2.60;;
59406;SDS011;45208;32.616;-115.472;2022-08-01T05:15:55;9.05;;;2.67;;
59406;SDS011;45208;32.616;-115.472;2022-08-01T05:18:22;10.90;;;2.88;;
59406;SDS011;45208;32.616;-115.472;2022-08-01T05:20:48;17.65;;;3.78;;
59406;SDS011;45208;32.616;-115.472;2022-08-01T05:23:15;14.65;;;3.10;;
59406;SDS011;45208;32.616;-115.472;2022-08-01T05:25:41;9.52;;;2.75;;
59406;SDS011;45208;32.616;-115.472;2022-08-01T05:28:08;15.57;;;3.60;;
59406;SDS011;45208;32.616;-115.472;2022-08-01T05:30:35;8.98;;;3.10;;
59406;SDS011;45208;32.616;-115.472;2022-08-01T05:33:02;12.15;;;3.03;;
59406;SDS011;45208;32.616;-115.472;2022-08-01T05:35:28;13.20;;;2.88;;
59406;SDS011;45208;32.616;-115.472;2022-08-01T05:37:55;14.90;;;3.47;;
59406;SDS011;45208;32.616;-115.472;2022-08-01T05:40:22;8.77;;;2.83;;
59406;SDS011;45208;32.616;-115.472;2022-08-01T05:42:48;10.55;;;3.60;;
59406;SDS011;45208;32.616;-115.472;2022-08-01T05:45:15;9.90;;;3.10;;
59406;SDS011;45208;32.616;-115.472;2022-08-01T05:47:41;10.35;;;3.30;;
59406;SDS011;45208;32.616;-115.472;2022-08-01T05:50:14;12.50;;;3.50;;
59406;SDS011;45208;32.616;-115.472;2022-08-01T05:52:41;13.77;;;3.35;;
59406;SDS011;45208;32.616;-115.472;2022-08-01T05:55:08;11.45;;;3.90;;
59406;SDS011;45208;32.616;-115.472;2022-08-01T05:57:35;14.95;;;3.83;;
59406;SDS011;45208;32.616;-115.472;2022-08-01T06:00:01;14.45;;;3.53;;
59406;SDS011;45208;32.616;-115.472;2022-08-01T06:02:39;15.85;;;3.92;;
59406;SDS011;45208;32.616;-115.472;2022-08-01T06:05:08;9.70;;;3.53;;
59406;SDS011;45208;32.616;-115.472;2022-08-01T06:07:35;11.88;;;3.90;;
59406;SDS011;45208;32.616;-115.472;2022-08-01T06:10:04;13.65;;;4.15;;
59406;SDS011;45208;32.616;-115.472;2022-08-01T06:12:35;11.10;;;4.03;;
59406;SDS011;45208;32.616;-115.472;2022-08-01T06:15:02;14.07;;;3.83;;
59406;SDS011;45208;32.616;-115.472;2022-08-01T06:17:30;14.05;;;4.18;;
59406;SDS011;45208;32.616;-115.472;2022-08-01T06:19:57;15.00;;;4.20;;
59406;SDS011;45208;32.616;-115.472;2022-08-01T06:22:23;12.43;;;4.18;;
59406;SDS011;45208;32.616;-115.472;2022-08-01T06:24:50;12.00;;;3.83;;
59406;SDS011;45208;32.616;-115.472;2022-08-01T06:27:17;11.38;;;4.22;;
59406;SDS011;45208;32.616;-115.472;2022-08-01T06:29:44;9.70;;;3.38;;
59406;SDS011;45208;32.616;-115.472;2022-08-01T06:32:11;19.13;;;4.30;;
59406;SDS011;45208;32.616;-115.472;2022-08-01T06:34:38;9.75;;;3.75;;
59406;SDS011;45208;32.616;-115.472;2022-08-01T06:37:04;12.00;;;3.92;;
59406;SDS011;45208;32.616;-115.472;2022-08-01T06:39:31;11.02;;;4.15;;
59406;SDS011;45208;32.616;-115.472;2022-08-01T06:41:57;13.88;;;4.13;;
59406;SDS011;45208;32.616;-115.472;2022-08-01T06:44:24;11.48;;;3.70;;
59406;SDS011;45208;32.616;-115.472;2022-08-01T06:46:51;13.60;;;3.72;;
59406;SDS011;45208;32.616;-115.472;2022-08-01T06:49:18;14.07;;;4.28;;
59406;SDS011;45208;32.616;-115.472;2022-08-01T06:51:44;16.98;;;3.90;;
59406;SDS011;45208;32.616;-115.472;2022-08-01T06:54:11;17.33;;;3.95;;
59406;SDS011;45208;32.616;-115.472;2022-08-01T06:56:38;15.75;;;4.43;;
59406;SDS011;45208;32.616;-115.472;2022-08-01T06:59:04;12.60;;;4.00;;
59406;SDS011;45208;32.616;-115.472;2022-08-01T07:01:31;13.27;;;4.20;;
59406;SDS011;45208;32.616;-115.472;2022-08-01T07:03:58;11.13;;;3.85;;
59406;SDS011;45208;32.616;-115.472;2022-08-01T07:06:25;15.27;;;3.83;;
59406;SDS011;45208;32.616;-115.472;2022-08-01T07:08:52;13.95;;;4.72;;
59406;SDS011;45208;32.616;-115.472;2022-08-01T07:11:19;18.05;;;7.70;;
59406;SDS011;45208;32.616;-115.472;2022-08-01T07:13:46;21.85;;;7.82;;
59406;SDS011;45208;32.616;-115.472;2022-08-01T07:16:13;62.97;;;7.82;;
59406;SDS011;45208;32.616;-115.472;2022-08-01T07:18:41;13.30;;;7.13;;
59406;SDS011;45208;32.616;-115.472;2022-08-01T07:21:08;18.52;;;4.90;;
59406;SDS011;45208;32.616;-115.472;2022-08-01T07:23:35;9.68;;;4.05;;
59406;SDS011;45208;32.616;-115.472;2022-08-01T07:26:03;16.95;;;5.43;;
59406;SDS011;45208;32.616;-115.472;2022-08-01T07:28:30;11.52;;;4.80;;
59406;SDS011;45208;32.616;-115.472;2022-08-01T07:30:56;14.27;;;5.40;;
59406;SDS011;45208;32.616;-115.472;2022-08-01T07:33:23;16.73;;;8.77;;
59406;SDS011;45208;32.616;-115.472;2022-08-01T07:35:50;20.80;;;7.50;;
59406;SDS011;45208;32.616;-115.472;2022-08-01T07:38:17;15.63;;;5.60;;
59406;SDS011;45208;32.616;-115.472;2022-08-01T07:40:44;18.25;;;7.38;;
59406;SDS011;45208;32.616;-115.472;2022-08-01T07:43:11;16.50;;;9.98;;
59406;SDS011;45208;32.616;-115.472;2022-08-01T07:45:37;16.58;;;8.68;;
59406;SDS011;45208;32.616;-115.472;2022-08-01T07:48:05;18.95;;;9.20;;
59406;SDS011;45208;32.616;-115.472;2022-08-01T07:50:32;15.45;;;5.88;;
59406;SDS011;45208;32.616;-115.472;2022-08-01T07:52:59;12.15;;;4.32;;
59406;SDS011;45208;32.616;-115.472;2022-08-01T07:55:26;17.77;;;5.72;;
59406;SDS011;45208;32.616;-115.472;2022-08-01T07:57:53;14.80;;;8.00;;
59406;SDS011;45208;32.616;-115.472;2022-08-01T08:00:19;18.23;;;7.72;;
59406;SDS011;45208;32.616;-115.472;2022-08-01T08:02:46;11.93;;;5.07;;
59406;SDS011;45208;32.616;-115.472;2022-08-01T08:05:13;12.48;;;3.83;;
59406;SDS011;45208;32.616;-115.472;2022-08-01T08:07:39;14.50;;;6.85;;
59406;SDS011;45208;32.616;-115.472;2022-08-01T08:10:06;16.95;;;5.57;;
59406;SDS011;45208;32.616;-115.472;2022-08-01T08:12:33;15.75;;;6.55;;
59406;SDS011;45208;32.616;-115.472;2022-08-01T08:15:00;15.30;;;5.95;;
59406;SDS011;45208;32.616;-115.472;2022-08-01T08:17:27;12.32;;;5.50;;
59406;SDS011;45208;32.616;-115.472;2022-08-01T08:19:53;15.52;;;4.63;;
59406;SDS011;45208;32.616;-115.472;2022-08-01T08:22:20;15.48;;;6.07;;
59406;SDS011;45208;32.616;-115.472;2022-08-01T08:24:47;14.02;;;4.90;;
59406;SDS011;45208;32.616;-115.472;2022-08-01T08:27:13;14.68;;;5.05;;
59406;SDS011;45208;32.616;-115.472;2022-08-01T08:29:40;13.30;;;4.15;;
59406;SDS011;45208;32.616;-115.472;2022-08-01T08:32:07;15.30;;;4.20;;
59406;SDS011;45208;32.616;-115.472;2022-08-01T08:34:35;12.80;;;3.83;;
59406;SDS011;45208;32.616;-115.472;2022-08-01T08:37:02;10.57;;;4.10;;
59406;SDS011;45208;32.616;-115.472;2022-08-01T08:39:29;17.42;;;3.60;;
59406;SDS011;45208;32.616;-115.472;2022-08-01T08:42:04;11.40;;;3.53;;
59406;SDS011;45208;32.616;-115.472;2022-08-01T08:44:32;11.48;;;4.20;;
59406;SDS011;45208;32.616;-115.472;2022-08-01T08:47:00;12.90;;;4.18;;
59406;SDS011;45208;32.616;-115.472;2022-08-01T08:49:31;17.98;;;4.50;;
59406;SDS011;45208;32.616;-115.472;2022-08-01T08:51:58;15.00;;;4.20;;
59406;SDS011;45208;32.616;-115.472;2022-08-01T08:54:27;10.00;;;3.90;;
59406;SDS011;45208;32.616;-115.472;2022-08-01T08:56:55;11.73;;;4.07;;
59406;SDS011;45208;32.616;-115.472;2022-08-01T08:59:23;13.68;;;3.80;;
59406;SDS011;45208;32.616;-115.472;2022-08-01T09:01:50;9.65;;;3.70;;
59406;SDS011;45208;32.616;-115.472;2022-08-01T09:04:17;18.02;;;4.70;;
59406;SDS011;45208;32.616;-115.472;2022-08-01T09:06:46;14.23;;;4.40;;
59406;SDS011;45208;32.616;-115.472;2022-08-01T09:09:13;16.52;;;4.70;;
59406;SDS011;45208;32.616;-115.472;2022-08-01T09:11:40;11.25;;;4.30;;
59406;SDS011;45208;32.616;-115.472;2022-08-01T09:14:11;17.15;;;4.50;;
59406;SDS011;45208;32.616;-115.472;2022-08-01T09:16:58;12.98;;;4.88;;
59406;SDS011;45208;32.616;-115.472;2022-08-01T09:19:33;14.25;;;5.05;;
59406;SDS011;45208;32.616;-115.472;2022-08-01T09:22:10;14.98;;;4.60;;
59406;SDS011;45208;32.616;-115.472;2022-08-01T09:24:39;14.25;;;4.30;;
59406;SDS011;45208;32.616;-115.472;2022-08-01T09:27:17;13.05;;;4.65;;
59406;SDS011;45208;32.616;-115.472;2022-08-01T09:29:45;14.85;;;4.30;;
59406;SDS011;45208;32.616;-115.472;2022-08-01T09:32:12;14.07;;;4.75;;
59406;SDS011;45208;32.616;-115.472;2022-08-01T09:34:39;17.60;;;4.28;;
59406;SDS011;45208;32.616;-115.472;2022-08-01T09:37:06;13.40;;;4.15;;
59406;SDS011;45208;32.616;-115.472;2022-08-01T09:39:33;13.90;;;4.47;;
59406;SDS011;45208;32.616;-115.472;2022-08-01T09:42:19;15.40;;;3.97;;
59406;SDS011;45208;32.616;-115.472;2022-08-01T09:44:47;14.80;;;4.90;;
59406;SDS011;45208;32.616;-115.472;2022-08-01T09:47:14;13.90;;;4.20;;
59406;SDS011;45208;32.616;-115.472;2022-08-01T09:49:42;13.38;;;4.40;;
59406;SDS011;45208;32.616;-115.472;2022-08-01T09:54:42;13.50;;;4.85;;
59406;SDS011;45208;32.616;-115.472;2022-08-01T09:57:19;11.93;;;4.53;;
59406;SDS011;45208;32.616;-115.472;2022-08-01T09:59:47;13.32;;;4.65;;
59406;SDS011;45208;32.616;-115.472;2022-08-01T10:02:32;10.50;;;4.60;;
59406;SDS011;45208;32.616;-115.472;2022-08-01T10:05:04;16.40;;;5.28;;
59406;SDS011;45208;32.616;-115.472;2022-08-01T10:07:33;15.60;;;4.88;;
59406;SDS011;45208;32.616;-115.472;2022-08-01T10:10:14;11.68;;;4.47;;
59406;SDS011;45208;32.616;-115.472;2022-08-01T10:12:41;11.60;;;4.65;;
59406;SDS011;45208;32.616;-115.472;2022-08-01T10:15:08;11.88;;;4.57;;
59406;SDS011;45208;32.616;-115.472;2022-08-01T10:17:37;14.00;;;4.60;;
59406;SDS011;45208;32.616;-115.472;2022-08-01T10:20:05;15.13;;;5.18;;
59406;SDS011;45208;32.616;-115.472;2022-08-01T10:22:33;14.60;;;4.68;;
59406;SDS011;45208;32.616;-115.472;2022-08-01T10:25:02;14.40;;;4.90;;
59406;SDS011;45208;32.616;-115.472;2022-08-01T10:27:31;15.35;;;4.55;;
59406;SDS011;45208;32.616;-115.472;2022-08-01T10:30:02;12.85;;;4.78;;
59406;SDS011;45208;32.616;-115.472;2022-08-01T10:32:31;12.40;;;4.30;;
59406;SDS011;45208;32.616;-115.472;2022-08-01T10:34:59;17.00;;;4.78;;
59406;SDS011;45208;32.616;-115.472;2022-08-01T10:37:26;15.60;;;4.72;;
59406;SDS011;45208;32.616;-115.472;2022-08-01T10:39:54;11.88;;;4.30;;
59406;SDS011;45208;32.616;-115.472;2022-08-01T10:42:21;16.75;;;4.45;;
59406;SDS011;45208;32.616;-115.472;2022-08-01T10:44:48;15.20;;;4.53;;
59406;SDS011;45208;32.616;-115.472;2022-08-01T10:47:17;14.48;;;4.63;;
59406;SDS011;45208;32.616;-115.472;2022-08-01T10:52:19;14.60;;;4.25;;
59406;SDS011;45208;32.616;-115.472;2022-08-01T10:54:46;15.98;;;4.55;;
59406;SDS011;45208;32.616;-115.472;2022-08-01T10:57:13;13.70;;;4.40;;
59406;SDS011;45208;32.616;-115.472;2022-08-01T10:59:50;13.95;;;4.07;;
59406;SDS011;45208;32.616;-115.472;2022-08-01T11:02:28;14.45;;;4.45;;
59406;SDS011;45208;32.616;-115.472;2022-08-01T11:05:04;14.18;;;5.05;;
59406;SDS011;45208;32.616;-115.472;2022-08-01T11:07:47;24.38;;;5.28;;
59406;SDS011;45208;32.616;-115.472;2022-08-01T11:12:50;14.18;;;5.10;;
59406;SDS011;45208;32.616;-115.472;2022-08-01T11:15:17;17.70;;;5.38;;
59406;SDS011;45208;32.616;-115.472;2022-08-01T11:17:55;14.93;;;4.70;;
59406;SDS011;45208;32.616;-115.472;2022-08-01T11:20:26;16.27;;;4.80;;
59406;SDS011;45208;32.616;-115.472;2022-08-01T11:26:11;15.20;;;4.30;;
59406;SDS011;45208;32.616;-115.472;2022-08-01T11:30:44;15.88;;;4.13;;
59406;SDS011;45208;32.616;-115.472;2022-08-01T11:33:16;10.45;;;4.40;;
59406;SDS011;45208;32.616;-115.472;2022-08-01T11:38:37;15.85;;;4.82;;
59406;SDS011;45208;32.616;-115.472;2022-08-01T11:41:20;11.80;;;4.07;;
59406;SDS011;45208;32.616;-115.472;2022-08-01T11:44:01;16.17;;;4.10;;
59406;SDS011;45208;32.616;-115.472;2022-08-01T11:54:58;10.68;;;4.53;;
59406;SDS011;45208;32.616;-115.472;2022-08-01T11:57:33;13.90;;;5.20;;
59406;SDS011;45208;32.616;-115.472;2022-08-01T12:00:05;15.15;;;6.63;;
59406;SDS011;45208;32.616;-115.472;2022-08-01T12:02:40;15.57;;;6.80;;
59406;SDS011;45208;32.616;-115.472;2022-08-01T12:05:08;22.80;;;11.80;;
59406;SDS011;45208;32.616;-115.472;2022-08-01T12:07:40;19.08;;;11.98;;
59406;SDS011;45208;32.616;-115.472;2022-08-01T12:10:09;17.33;;;8.90;;
59406;SDS011;45208;32.616;-115.472;2022-08-01T12:15:15;12.68;;;5.15;;
59406;SDS011;45208;32.616;-115.472;2022-08-01T12:17:46;15.32;;;5.70;;
59406;SDS011;45208;32.616;-115.472;2022-08-01T12:20:15;26.70;;;5.68;;
59406;SDS011;45208;32.616;-115.472;2022-08-01T12:22:45;14.25;;;4.55;;
59406;SDS011;45208;32.616;-115.472;2022-08-01T12:25:14;15.38;;;5.03;;
59406;SDS011;45208;32.616;-115.472;2022-08-01T12:27:43;18.08;;;4.57;;
59406;SDS011;45208;32.616;-115.472;2022-08-01T12:30:12;15.68;;;5.50;;
59406;SDS011;45208;32.616;-115.472;2022-08-01T12:32:51;13.73;;;5.55;;
59406;SDS011;45208;32.616;-115.472;2022-08-01T12:35:20;13.18;;;6.07;;
59406;SDS011;45208;32.616;-115.472;2022-08-01T12:37:49;19.55;;;6.72;;
59406;SDS011;45208;32.616;-115.472;2022-08-01T12:40:21;14.07;;;6.28;;
59406;SDS011;45208;32.616;-115.472;2022-08-01T12:43:09;15.15;;;4.60;;
59406;SDS011;45208;32.616;-115.472;2022-08-01T12:45:42;16.10;;;4.97;;
59406;SDS011;45208;32.616;-115.472;2022-08-01T12:48:11;16.15;;;4.35;;
59406;SDS011;45208;32.616;-115.472;2022-08-01T12:50:41;11.70;;;4.05;;
59406;SDS011;45208;32.616;-115.472;2022-08-01T12:53:09;18.88;;;6.28;;
59406;SDS011;45208;32.616;-115.472;2022-08-01T12:55:46;16.98;;;5.63;;
59406;SDS011;45208;32.616;-115.472;2022-08-01T12:58:16;22.90;;;5.78;;
59406;SDS011;45208;32.616;-115.472;2022-08-01T13:00:45;18.67;;;4.80;;
59406;SDS011;45208;32.616;-115.472;2022-08-01T13:05:42;17.85;;;5.13;;
59406;SDS011;45208;32.616;-115.472;2022-08-01T13:08:20;14.10;;;4.47;;
59406;SDS011;45208;32.616;-115.472;2022-08-01T13:13:34;12.75;;;4.32;;
59406;SDS011;45208;32.616;-115.472;2022-08-01T13:16:07;12.60;;;4.65;;
59406;SDS011;45208;32.616;-115.472;2022-08-01T13:18:37;19.33;;;5.47;;
59406;SDS011;45208;32.616;-115.472;2022-08-01T13:21:08;20.02;;;5.20;;
59406;SDS011;45208;32.616;-115.472;2022-08-01T13:23:36;135.23;;;11.95;;
59406;SDS011;45208;32.616;-115.472;2022-08-01T13:26:03;17.52;;;4.88;;
59406;SDS011;45208;32.616;-115.472;2022-08-01T13:28:30;23.45;;;5.40;;
59406;SDS011;45208;32.616;-115.472;2022-08-01T13:33:45;15.35;;;5.22;;
59406;SDS011;45208;32.616;-115.472;2022-08-01T13:36:16;14.88;;;4.82;;
59406;SDS011;45208;32.616;-115.472;2022-08-01T13:38:43;19.30;;;5.80;;
59406;SDS011;45208;32.616;-115.472;2022-08-01T13:41:28;18.55;;;5.05;;
59406;SDS011;45208;32.616;-115.472;2022-08-01T13:43:54;22.08;;;5.32;;
59406;SDS011;45208;32.616;-115.472;2022-08-01T13:46:21;16.90;;;5.10;;
59406;SDS011;45208;32.616;-115.472;2022-08-01T13:48:48;17.58;;;4.80;;
59406;SDS011;45208;32.616;-115.472;2022-08-01T13:51:14;25.90;;;5.28;;
59406;SDS011;45208;32.616;-115.472;2022-08-01T13:53:41;13.38;;;4.70;;
59406;SDS011;45208;32.616;-115.472;2022-08-01T13:56:08;16.00;;;4.80;;
59406;SDS011;45208;32.616;-115.472;2022-08-01T13:58:34;20.75;;;5.80;;
59406;SDS011;45208;32.616;-115.472;2022-08-01T14:01:01;20.52;;;6.82;;
59406;SDS011;45208;32.616;-115.472;2022-08-01T14:03:28;19.05;;;6.88;;
59406;SDS011;45208;32.616;-115.472;2022-08-01T14:05:56;17.50;;;5.85;;
59406;SDS011;45208;32.616;-115.472;2022-08-01T14:08:22;17.38;;;5.40;;
59406;SDS011;45208;32.616;-115.472;2022-08-01T14:10:49;17.63;;;4.63;;
59406;SDS011;45208;32.616;-115.472;2022-08-01T14:13:18;14.55;;;4.63;;
59406;SDS011;45208;32.616;-115.472;2022-08-01T14:15:45;14.82;;;5.32;;
59406;SDS011;45208;32.616;-115.472;2022-08-01T14:18:11;45.25;;;6.22;;
59406;SDS011;45208;32.616;-115.472;2022-08-01T14:20:38;19.50;;;4.78;;
59406;SDS011;45208;32.616;-115.472;2022-08-01T14:23:05;23.65;;;4.63;;
59406;SDS011;45208;32.616;-115.472;2022-08-01T14:25:32;18.73;;;4.68;;
59406;SDS011;45208;32.616;-115.472;2022-08-01T14:27:59;14.25;;;4.50;;
59406;SDS011;45208;32.616;-115.472;2022-08-01T14:30:26;19.75;;;4.70;;
59406;SDS011;45208;32.616;-115.472;2022-08-01T14:32:53;12.38;;;4.10;;
59406;SDS011;45208;32.616;-115.472;2022-08-01T14:35:19;13.65;;;4.25;;
59406;SDS011;45208;32.616;-115.472;2022-08-01T14:37:46;11.73;;;4.20;;
59406;SDS011;45208;32.616;-115.472;2022-08-01T14:40:13;12.18;;;3.97;;
59406;SDS011;45208;32.616;-115.472;2022-08-01T14:42:39;14.52;;;4.10;;
59406;SDS011;45208;32.616;-115.472;2022-08-01T14:45:06;13.18;;;4.05;;
59406;SDS011;45208;32.616;-115.472;2022-08-01T14:47:37;15.85;;;3.65;;
59406;SDS011;45208;32.616;-115.472;2022-08-01T14:50:06;17.75;;;4.07;;
59406;SDS011;45208;32.616;-115.472;2022-08-01T14:52:35;17.23;;;4.38;;
59406;SDS011;45208;32.616;-115.472;2022-08-01T14:55:03;16.55;;;4.38;;
59406;SDS011;45208;32.616;-115.472;2022-08-01T14:57:31;19.83;;;4.28;;